createdAt,value
2022-09-07T00:01:00.742Z,3.10
2022-09-07T00:03:29.044Z,3.17
2022-09-07T00:05:57.235Z,3.25
2022-09-07T00:08:27.370Z,3.47
2022-09-07T00:11:04.904Z,3.33
2022-09-07T00:13:35.982Z,3.60
2022-09-07T00:16:15.228Z,3.03
2022-09-07T00:18:46.069Z,2.75
2022-09-07T00:21:16.904Z,2.90
2022-09-07T00:23:45.713Z,3.05
2022-09-07T00:26:18.238Z,2.80
2022-09-07T00:28:46.683Z,3.35
2022-09-07T00:31:23.103Z,3.30
2022-09-07T00:33:52.715Z,3.38
2022-09-07T00:36:22.767Z,3.85
2022-09-07T00:38:50.879Z,2.90
2022-09-07T00:41:20.974Z,3.30
2022-09-07T00:43:52.948Z,3.42
2022-09-07T00:46:24.524Z,3.20
2022-09-07T00:49:14.991Z,2.55
2022-09-07T00:51:46.246Z,4.15
2022-09-07T00:54:23.951Z,3.17
2022-09-07T00:56:55.425Z,3.17
2022-09-07T00:59:28.994Z,3.40
2022-09-07T01:01:57.102Z,2.80
2022-09-07T01:04:26.032Z,3.38
2022-09-07T01:06:55.344Z,3.20
2022-09-07T01:09:25.010Z,2.95
2022-09-07T01:11:54.831Z,3.20
2022-09-07T01:14:26.569Z,3.38
2022-09-07T01:17:13.076Z,4.40
2022-09-07T01:20:29.040Z,3.38
2022-09-07T01:22:59.866Z,3.60
2022-09-07T01:25:27.611Z,3.30
2022-09-07T01:28:22.799Z,3.15
2022-09-07T01:30:56.526Z,3.50
2022-09-07T01:33:54.976Z,3.80
2022-09-07T01:36:54.029Z,3.80
2022-09-07T01:39:26.408Z,3.85
2022-09-07T01:42:07.960Z,4.45
2022-09-07T01:44:54.327Z,3.22
2022-09-07T01:47:28.688Z,3.60
2022-09-07T01:50:07.724Z,3.75
2022-09-07T01:53:01.762Z,4.07
2022-09-07T01:55:37.075Z,3.70
2022-09-07T01:58:13.516Z,3.65
2022-09-07T02:00:45.147Z,4.80
2022-09-07T02:03:23.210Z,4.05
2022-09-07T02:05:58.617Z,3.92
2022-09-07T02:08:34.426Z,4.38
2022-09-07T02:11:10.629Z,4.32
2022-09-07T02:14:00.878Z,4.82
2022-09-07T02:16:30.052Z,4.57
2022-09-07T02:19:05.415Z,4.07
2022-09-07T02:21:42.553Z,4.28
2022-09-07T02:24:18.315Z,4.82
2022-09-07T02:26:49.347Z,4.63
2022-09-07T02:29:17.016Z,3.90
2022-09-07T02:31:44.875Z,3.83
2022-09-07T02:34:12.976Z,5.55
2022-09-07T02:39:10.976Z,4.18
2022-09-07T02:41:41.414Z,4.78
2022-09-07T02:44:16.075Z,4.38
2022-09-07T02:46:53.533Z,4.60
2022-09-07T02:50:02.749Z,3.40
2022-09-07T02:52:48.567Z,4.70
2022-09-07T02:55:48.534Z,3.78
2022-09-07T02:58:35.202Z,4.45
2022-09-07T03:01:07.421Z,4.38
2022-09-07T03:04:15.652Z,5.30
2022-09-07T03:06:49.665Z,4.78
2022-09-07T03:09:23.794Z,4.82
2022-09-07T03:11:52.504Z,5.05
2022-09-07T03:14:23.619Z,4.18
2022-09-07T03:16:55.386Z,4.57
2022-09-07T03:19:23.232Z,4.50
2022-09-07T03:21:51.175Z,4.95
2022-09-07T03:26:48.978Z,5.25
2022-09-07T03:29:17.006Z,4.88
2022-09-07T03:31:45.109Z,4.80
2022-09-07T03:34:13.034Z,4.40
2022-09-07T03:36:40.887Z,5.32
2022-09-07T03:39:11.127Z,5.60
2022-09-07T03:41:39.196Z,5.55
2022-09-07T03:46:35.379Z,4.68
2022-09-07T03:49:03.618Z,6.20
2022-09-07T03:51:31.589Z,5.28
2022-09-07T03:54:00.458Z,5.30
2022-09-07T03:56:28.211Z,4.88
2022-09-07T03:58:56.366Z,5.40
2022-09-07T04:01:26.157Z,5.80
2022-09-07T04:04:01.955Z,6.03
2022-09-07T04:06:30.608Z,5.85
2022-09-07T04:09:05.444Z,6.60
2022-09-07T04:11:33.549Z,5.88
2022-09-07T04:16:29.285Z,6.35
2022-09-07T04:18:59.351Z,6.55
2022-09-07T04:21:28.694Z,6.53
2022-09-07T04:23:57.520Z,6.25
2022-09-07T04:26:28.965Z,6.50
2022-09-07T04:28:57.140Z,6.25
2022-09-07T04:33:54.329Z,6.00
2022-09-07T04:36:24.878Z,6.50
2022-09-07T04:39:01.352Z,7.00
2022-09-07T04:41:31.291Z,5.30
2022-09-07T04:44:01.194Z,5.70
2022-09-07T04:46:33.689Z,5.72
2022-09-07T04:49:05.930Z,6.95
2022-09-07T04:51:34.250Z,7.78
2022-09-07T04:54:03.143Z,9.10
2022-09-07T04:56:32.787Z,8.52
2022-09-07T04:59:01.929Z,7.85
2022-09-07T05:01:30.111Z,7.88
2022-09-07T05:04:00.503Z,8.15
2022-09-07T05:06:28.919Z,7.60
2022-09-07T05:08:58.186Z,7.93
2022-09-07T05:11:29.359Z,9.43
2022-09-07T05:14:02.328Z,9.48
2022-09-07T05:16:30.844Z,8.75
2022-09-07T05:19:02.892Z,9.40
2022-09-07T05:21:33.095Z,8.63
2022-09-07T05:24:01.634Z,9.50
2022-09-07T05:26:31.692Z,8.82
2022-09-07T05:31:51.127Z,9.55
2022-09-07T05:34:34.240Z,9.38
2022-09-07T05:37:02.566Z,10.73
2022-09-07T05:39:30.456Z,9.82
2022-09-07T05:47:14.022Z,8.48
2022-09-07T05:49:41.819Z,8.70
2022-09-07T05:52:09.655Z,8.07
2022-09-07T05:57:05.092Z,7.55
2022-09-07T05:59:33.337Z,8.05
2022-09-07T06:02:01.921Z,7.20
2022-09-07T06:04:30.304Z,7.57
2022-09-07T06:07:20.660Z,7.03
2022-09-07T06:12:35.826Z,7.05
2022-09-07T06:15:05.426Z,7.22
2022-09-07T06:17:33.447Z,8.85
2022-09-07T06:20:01.391Z,8.30
2022-09-07T06:24:59.280Z,9.60
2022-09-07T06:35:12.972Z,8.18
2022-09-07T06:37:41.160Z,8.23
2022-09-07T06:40:12.069Z,7.90
2022-09-07T06:42:40.147Z,9.70
2022-09-07T06:45:11.313Z,9.27
2022-09-07T06:47:40.008Z,8.75
2022-09-07T06:50:08.352Z,8.40
2022-09-07T06:55:28.039Z,7.72
2022-09-07T06:57:56.714Z,8.63
2022-09-07T07:00:24.688Z,7.45
2022-09-07T07:02:52.534Z,7.97
2022-09-07T07:05:20.161Z,7.38
2022-09-07T07:07:47.837Z,7.43
2022-09-07T07:10:15.704Z,7.68
2022-09-07T07:15:10.393Z,6.63
2022-09-07T07:20:06.862Z,6.38
2022-09-07T07:22:49.947Z,6.03
2022-09-07T07:25:17.941Z,5.47
2022-09-07T07:30:18.379Z,6.20
2022-09-07T07:32:47.067Z,6.20
2022-09-07T07:35:15.330Z,6.30
2022-09-07T07:37:42.941Z,6.50
2022-09-07T07:42:45.792Z,5.93
2022-09-07T07:48:01.809Z,6.45
2022-09-07T07:50:31.487Z,5.20
2022-09-07T07:55:48.278Z,6.40
2022-09-07T07:58:15.942Z,6.63
2022-09-07T08:00:54.181Z,6.50
2022-09-07T08:03:24.719Z,5.63
2022-09-07T08:05:53.021Z,7.95
2022-09-07T08:08:23.749Z,5.65
2022-09-07T08:10:53.867Z,8.23
2022-09-07T08:13:21.765Z,6.18
2022-09-07T08:15:50.581Z,6.72
2022-09-07T08:20:47.001Z,5.40
2022-09-07T08:25:53.586Z,4.30
2022-09-07T08:28:23.497Z,4.72
2022-09-07T08:30:51.698Z,4.70
2022-09-07T08:33:19.516Z,4.90
2022-09-07T08:36:02.940Z,6.47
2022-09-07T08:38:34.559Z,5.03
2022-09-07T08:41:04.008Z,4.88
2022-09-07T08:43:52.573Z,4.57
2022-09-07T08:46:40.717Z,4.60
2022-09-07T08:49:19.022Z,4.85
2022-09-07T08:52:01.065Z,4.30
2022-09-07T08:54:29.303Z,4.72
2022-09-07T09:00:04.297Z,4.13
2022-09-07T09:02:42.469Z,4.18
2022-09-07T09:05:35.115Z,5.32
2022-09-07T09:08:57.199Z,4.80
2022-09-07T09:11:32.839Z,5.57
2022-09-07T09:17:02.673Z,3.97
2022-09-07T09:20:05.004Z,4.70
2022-09-07T09:22:32.667Z,5.05
2022-09-07T09:25:21.596Z,5.20
2022-09-07T09:27:50.071Z,4.40
2022-09-07T09:30:22.729Z,5.03
2022-09-07T09:32:52.968Z,5.82
2022-09-07T09:35:32.862Z,4.55
2022-09-07T09:38:03.814Z,5.93
2022-09-07T09:40:34.143Z,6.45
2022-09-07T09:43:06.345Z,7.50
2022-09-07T09:48:37.165Z,5.38
2022-09-07T09:53:59.498Z,5.78
2022-09-07T09:56:41.446Z,5.00
2022-09-07T10:05:29.622Z,5.55
2022-09-07T10:07:57.976Z,5.72
2022-09-07T10:10:28.329Z,4.63
2022-09-07T10:12:56.672Z,4.70
2022-09-07T10:15:40.676Z,5.35
2022-09-07T10:18:23.854Z,5.20
2022-09-07T10:20:51.500Z,5.40
2022-09-07T10:23:28.644Z,4.70
2022-09-07T10:25:57.734Z,5.10
2022-09-07T10:29:06.058Z,4.72
2022-09-07T10:31:30.351Z,5.38
2022-09-07T10:34:27.469Z,4.57
2022-09-07T10:37:13.629Z,4.75
2022-09-07T10:40:07.067Z,4.63
2022-09-07T10:42:40.069Z,4.40
2022-09-07T10:45:10.612Z,4.55
2022-09-07T10:47:52.174Z,4.40
2022-09-07T10:50:44.435Z,4.43
2022-09-07T10:56:48.120Z,4.45
2022-09-07T11:05:48.460Z,4.30
2022-09-07T11:09:15.992Z,4.00
2022-09-07T11:14:57.960Z,4.13
2022-09-07T11:17:29.212Z,4.75
2022-09-07T11:20:21.346Z,5.10
2022-09-07T11:23:12.850Z,4.57
2022-09-07T11:25:55.070Z,4.03
2022-09-07T11:28:41.709Z,4.03
2022-09-07T11:31:25.518Z,5.00
2022-09-07T11:36:59.480Z,4.97
2022-09-07T11:39:35.702Z,3.65
2022-09-07T11:45:25.427Z,3.60
2022-09-07T11:48:06.520Z,4.53
2022-09-07T11:50:39.475Z,3.53
2022-09-07T11:53:27.945Z,4.50
2022-09-07T11:56:00.405Z,3.30
2022-09-07T11:58:52.917Z,4.43
2022-09-07T12:01:38.254Z,3.80
2022-09-07T12:04:18.071Z,3.40
2022-09-07T12:07:18.284Z,3.45
2022-09-07T12:10:21.026Z,3.83
2022-09-07T12:13:21.302Z,3.28
2022-09-07T12:16:04.084Z,3.42
2022-09-07T12:18:59.867Z,3.25
2022-09-07T12:21:39.627Z,3.17
2022-09-07T12:24:35.268Z,3.83
2022-09-07T12:27:05.411Z,3.72
2022-09-07T12:29:34.233Z,3.83
2022-09-07T12:34:57.947Z,3.35
2022-09-07T12:37:52.710Z,4.00
2022-09-07T12:40:29.803Z,3.30
2022-09-07T12:43:16.407Z,4.05
2022-09-07T12:45:44.120Z,3.22
2022-09-07T12:50:59.300Z,4.20
2022-09-07T12:53:32.691Z,3.03
2022-09-07T12:56:28.240Z,3.75
2022-09-07T12:59:06.493Z,3.70
2022-09-07T13:01:54.911Z,3.13
2022-09-07T13:05:03.378Z,4.75
2022-09-07T13:07:31.136Z,8.10
2022-09-07T13:15:50.449Z,5.45
2022-09-07T13:18:21.266Z,3.05
2022-09-07T13:21:09.056Z,2.80
2022-09-07T13:27:03.314Z,3.72
2022-09-07T13:29:47.876Z,3.55
2022-09-07T13:33:07.850Z,4.22
2022-09-07T13:35:27.419Z,3.40
2022-09-07T13:38:01.272Z,3.40
2022-09-07T13:40:39.270Z,3.47
2022-09-07T13:43:16.678Z,3.75
2022-09-07T13:45:53.149Z,3.47
2022-09-07T13:48:46.944Z,3.57
2022-09-07T13:51:20.940Z,1.83
2022-09-07T13:54:08.934Z,2.92
2022-09-07T13:56:55.133Z,2.95
2022-09-07T13:59:27.293Z,2.50
2022-09-07T14:01:56.209Z,2.65
2022-09-07T14:04:41.764Z,2.42
2022-09-07T14:07:19.965Z,2.33
2022-09-07T14:09:50.497Z,2.75
2022-09-07T14:12:21.612Z,2.55
2022-09-07T14:15:09.491Z,2.80
2022-09-07T14:17:37.862Z,2.85
2022-09-07T14:20:06.957Z,2.22
2022-09-07T14:22:35.562Z,1.80
2022-09-07T14:25:06.139Z,1.98
2022-09-07T14:27:41.193Z,1.55
2022-09-07T14:30:33.530Z,1.60
2022-09-07T14:33:13.498Z,2.00
2022-09-07T14:35:41.948Z,1.90
2022-09-07T14:41:20.136Z,2.22
2022-09-07T14:43:56.286Z,2.40
2022-09-07T14:46:31.790Z,2.40
2022-09-07T14:49:07.625Z,2.60
2022-09-07T14:51:36.929Z,2.28
2022-09-07T14:54:06.858Z,3.22
2022-09-07T14:56:40.335Z,2.25
2022-09-07T14:59:41.585Z,2.60
2022-09-07T15:02:18.821Z,2.25
2022-09-07T15:07:41.040Z,2.63
2022-09-07T15:10:14.300Z,2.47
2022-09-07T15:12:44.248Z,2.22
2022-09-07T15:15:32.238Z,2.25
2022-09-07T15:18:08.712Z,1.90
2022-09-07T15:20:44.338Z,2.25
2022-09-07T15:23:14.310Z,2.42
2022-09-07T15:25:49.621Z,2.20
2022-09-07T15:34:04.585Z,1.85
2022-09-07T15:36:32.356Z,2.15
2022-09-07T15:41:29.369Z,1.52
2022-09-07T15:43:57.353Z,1.30
2022-09-07T15:46:28.497Z,2.17
2022-09-07T15:48:57.328Z,2.03
2022-09-07T15:54:16.605Z,2.30
2022-09-07T15:57:48.465Z,1.50
2022-09-07T15:59:33.009Z,1.67
2022-09-07T16:02:00.993Z,2.22
2022-09-07T16:04:29.263Z,1.50
2022-09-07T16:06:58.013Z,1.50
2022-09-07T16:09:26.006Z,1.70
2022-09-07T16:11:54.111Z,1.80
2022-09-07T16:14:21.995Z,1.58
2022-09-07T16:19:41.127Z,1.90
2022-09-07T16:22:09.373Z,2.30
2022-09-07T16:24:37.349Z,1.95
2022-09-07T16:27:06.263Z,2.05
2022-09-07T16:29:33.889Z,1.95
2022-09-07T16:34:49.699Z,2.13
2022-09-07T16:39:46.433Z,3.17
2022-09-07T16:44:42.272Z,5.15
2022-09-07T16:49:39.241Z,4.40
2022-09-07T16:52:11.010Z,4.15
2022-09-07T16:54:38.640Z,4.07
2022-09-07T16:57:06.252Z,4.75
2022-09-07T16:59:34.077Z,4.10
2022-09-07T17:02:02.189Z,3.50
2022-09-07T17:04:29.903Z,3.63
2022-09-07T17:06:57.528Z,2.95
2022-09-07T17:09:26.910Z,2.70
2022-09-07T17:11:54.717Z,3.35
2022-09-07T17:14:22.563Z,2.78
2022-09-07T17:19:33.472Z,2.47
2022-09-07T17:22:01.579Z,2.08
2022-09-07T17:24:29.668Z,2.10
2022-09-07T17:26:59.929Z,2.00
2022-09-07T17:29:30.566Z,2.10
2022-09-07T17:34:46.920Z,2.33
2022-09-07T17:37:14.510Z,2.42
2022-09-07T17:39:42.372Z,2.33
2022-09-07T17:42:10.206Z,2.35
2022-09-07T17:47:06.755Z,2.55
2022-09-07T17:49:34.638Z,2.67
2022-09-07T17:52:02.704Z,2.70
2022-09-07T17:54:30.761Z,2.80
2022-09-07T17:56:58.700Z,2.65
2022-09-07T18:02:15.000Z,2.85
2022-09-07T18:07:11.314Z,3.10
2022-09-07T18:09:39.304Z,3.40
2022-09-07T18:12:07.283Z,3.33
2022-09-07T18:14:34.951Z,4.15
2022-09-07T18:17:02.577Z,3.90
2022-09-07T18:19:31.058Z,4.75
2022-09-07T18:21:59.076Z,4.20
2022-09-07T18:24:27.666Z,4.70
2022-09-07T18:26:57.013Z,3.80
2022-09-07T18:29:29.980Z,3.55
2022-09-07T18:31:59.996Z,4.80
2022-09-07T18:34:35.107Z,4.10
2022-09-07T18:37:03.241Z,4.22
2022-09-07T18:39:31.583Z,4.05
2022-09-07T18:41:59.479Z,4.25
2022-09-07T18:47:22.326Z,5.20
2022-09-07T18:49:55.426Z,4.68
2022-09-07T18:55:11.961Z,4.88
2022-09-07T18:57:39.692Z,5.45
2022-09-07T19:00:09.336Z,5.43
2022-09-07T19:02:37.456Z,5.03
2022-09-07T19:07:54.940Z,5.13
2022-09-07T19:10:23.229Z,4.57
2022-09-07T19:12:51.061Z,5.47
2022-09-07T19:15:20.634Z,5.40
2022-09-07T19:17:48.503Z,6.47
2022-09-07T19:20:16.442Z,6.88
2022-09-07T19:22:44.371Z,6.30
2022-09-07T19:25:12.132Z,6.20
2022-09-07T19:27:39.900Z,7.10
2022-09-07T19:30:08.075Z,6.68
2022-09-07T19:32:36.032Z,6.57
2022-09-07T19:35:03.995Z,6.60
2022-09-07T19:40:01.875Z,7.28
2022-09-07T19:42:30.502Z,6.32
2022-09-07T19:44:58.707Z,6.97
2022-09-07T19:49:56.803Z,7.38
2022-09-07T19:52:24.538Z,7.40
2022-09-07T19:54:52.257Z,6.45
2022-09-07T19:57:20.070Z,7.03
2022-09-07T19:59:47.834Z,7.90
2022-09-07T20:02:15.791Z,7.07
2022-09-07T20:07:12.073Z,7.38
2022-09-07T20:09:39.850Z,7.93
2022-09-07T20:12:08.620Z,7.40
2022-09-07T20:14:36.310Z,6.13
2022-09-07T20:17:04.050Z,6.43
2022-09-07T20:19:31.713Z,5.85
2022-09-07T20:21:59.915Z,6.82
2022-09-07T20:24:27.508Z,5.82
2022-09-07T20:26:55.291Z,6.20
2022-09-07T20:29:27.813Z,6.43
2022-09-07T20:31:58.102Z,6.35
2022-09-07T20:34:27.935Z,5.43
2022-09-07T20:36:56.831Z,5.20
2022-09-07T20:39:24.893Z,6.57
2022-09-07T20:41:53.173Z,5.40
2022-09-07T20:46:48.424Z,5.40
2022-09-07T20:49:16.308Z,5.35
2022-09-07T20:51:44.245Z,5.43
2022-09-07T20:54:12.681Z,5.70
2022-09-07T21:01:36.732Z,5.50
2022-09-07T21:04:06.167Z,5.20
2022-09-07T21:06:34.736Z,5.15
2022-09-07T21:09:02.455Z,7.05
2022-09-07T21:11:32.505Z,4.75
2022-09-07T21:14:07.369Z,4.80
2022-09-07T21:16:36.591Z,5.15
2022-09-07T21:19:07.383Z,5.30
2022-09-07T21:21:38.921Z,5.35
2022-09-07T21:24:14.598Z,4.90
2022-09-07T21:26:42.388Z,4.95
2022-09-07T21:29:18.654Z,4.53
2022-09-07T21:31:48.449Z,5.07
2022-09-07T21:34:16.953Z,4.90
2022-09-07T21:36:45.589Z,5.40
2022-09-07T21:39:15.229Z,5.35
2022-09-07T21:41:44.231Z,6.28
2022-09-07T21:44:13.648Z,5.57
2022-09-07T21:46:42.751Z,5.22
2022-09-07T21:49:11.131Z,5.30
2022-09-07T21:51:39.334Z,5.30
2022-09-07T21:54:07.127Z,5.93
2022-09-07T21:56:35.256Z,5.15
2022-09-07T22:01:31.136Z,5.78
2022-09-07T22:04:04.081Z,5.78
2022-09-07T22:06:32.777Z,5.97
2022-09-07T22:09:02.181Z,6.05
2022-09-07T22:11:30.946Z,6.40
2022-09-07T22:14:04.109Z,7.03
2022-09-07T22:16:34.678Z,5.70
2022-09-07T22:19:02.920Z,6.57
2022-09-07T22:21:31.253Z,6.88
2022-09-07T22:24:02.048Z,6.82
2022-09-07T22:26:32.721Z,7.55
2022-09-07T22:29:00.712Z,6.65
2022-09-07T22:33:58.852Z,7.20
2022-09-07T22:36:33.146Z,5.90
2022-09-07T22:39:04.964Z,5.55
2022-09-07T22:41:34.984Z,5.47
2022-09-07T22:44:03.113Z,5.88
2022-09-07T22:46:34.473Z,5.85
2022-09-07T22:49:02.318Z,7.07
2022-09-07T22:51:30.358Z,8.10
2022-09-07T22:56:28.248Z,6.82
2022-09-07T22:58:58.747Z,6.93
2022-09-07T23:01:28.217Z,7.30
2022-09-07T23:03:56.347Z,5.85
2022-09-07T23:06:30.266Z,5.65
2022-09-07T23:08:59.671Z,5.60
2022-09-07T23:11:27.598Z,6.97
2022-09-07T23:14:01.314Z,5.97
2022-09-07T23:16:29.669Z,7.40
2022-09-07T23:19:00.829Z,5.40
2022-09-07T23:21:29.215Z,6.32
2022-09-07T23:23:58.835Z,5.88
2022-09-07T23:26:28.859Z,6.20
2022-09-07T23:28:59.331Z,7.03
2022-09-07T23:31:30.451Z,5.63
2022-09-07T23:33:58.522Z,5.97
2022-09-07T23:38:56.296Z,5.38
2022-09-07T23:41:25.116Z,5.93
2022-09-07T23:43:54.393Z,6.13
2022-09-07T23:46:22.301Z,6.13
2022-09-07T23:51:21.494Z,6.47
2022-09-07T23:53:52.440Z,7.25
2022-09-07T23:56:21.258Z,6.25
2022-09-07T23:58:49.119Z,6.53
